createdAt,value
2017-07-12T00:00:55.338Z,100489.06
2017-07-12T00:03:23.755Z,100497.33
2017-07-12T00:05:52.145Z,100503.10
2017-07-12T00:08:20.559Z,100496.92
2017-07-12T00:10:48.945Z,100490.63
2017-07-12T00:13:17.570Z,100482.44
2017-07-12T00:15:46.357Z,100485.45
2017-07-12T00:18:15.153Z,100486.62
2017-07-12T00:20:43.948Z,100486.56
2017-07-12T00:23:12.732Z,100488.88
2017-07-12T00:25:41.538Z,100485.22
2017-07-12T00:28:09.933Z,100492.39
2017-07-12T00:30:38.350Z,100481.21
2017-07-12T00:33:06.737Z,100480.05
2017-07-12T00:35:35.151Z,100485.24
2017-07-12T00:38:03.555Z,100486.25
2017-07-12T00:40:31.961Z,100480.80
2017-07-12T00:43:00.588Z,100481.49
2017-07-12T00:45:29.550Z,100481.17
2017-07-12T00:47:57.938Z,100478.20
2017-07-12T00:50:26.331Z,100481.16
2017-07-12T00:52:55.142Z,100475.34
2017-07-12T00:55:23.543Z,100479.11
2017-07-12T00:57:51.954Z,100473.08
2017-07-12T01:00:20.341Z,100472.22
2017-07-12T01:02:48.759Z,100473.02
2017-07-12T01:05:17.150Z,100469.59
2017-07-12T01:07:46.371Z,100461.56
2017-07-12T01:10:14.767Z,100464.41
2017-07-12T01:12:43.593Z,100458.20
2017-07-12T01:15:12.378Z,100452.47
2017-07-12T01:17:41.174Z,100453.94
2017-07-12T01:20:10.699Z,100448.37
2017-07-12T01:22:40.193Z,100446.90
2017-07-12T01:25:08.999Z,100445.30
2017-07-12T01:27:37.403Z,100443.48
2017-07-12T01:30:05.815Z,100445.79
2017-07-12T01:32:34.209Z,100450.02
2017-07-12T01:35:03.022Z,100449.16
2017-07-12T01:37:31.423Z,100438.48
2017-07-12T01:40:00.075Z,100441.11
2017-07-12T01:42:29.094Z,100427.06
2017-07-12T01:44:57.493Z,100433.48
2017-07-12T01:47:25.902Z,100431.52
2017-07-12T01:49:54.284Z,100431.03
2017-07-12T01:52:22.703Z,100423.22
2017-07-12T01:54:51.099Z,100420.36
2017-07-12T01:57:19.519Z,100421.88
2017-07-12T01:59:47.901Z,100426.45
2017-07-12T02:02:16.332Z,100422.53
2017-07-12T02:04:44.726Z,100416.56
2017-07-12T02:07:13.139Z,100422.33
2017-07-12T02:09:42.111Z,100416.77
2017-07-12T02:12:10.747Z,100416.59
2017-07-12T02:14:39.570Z,100414.94
2017-07-12T02:17:08.235Z,100414.99
2017-07-12T02:19:37.715Z,100410.22
2017-07-12T02:22:06.118Z,100416.81
2017-07-12T02:24:34.532Z,100423.59
2017-07-12T02:27:02.931Z,100425.68
2017-07-12T02:29:31.328Z,100429.50
2017-07-12T02:31:59.721Z,100429.27
2017-07-12T02:34:28.458Z,100426.53
2017-07-12T02:36:56.854Z,100427.36
2017-07-12T02:39:25.260Z,100423.81
2017-07-12T02:41:54.080Z,100424.88
2017-07-12T02:44:23.093Z,100424.13
2017-07-12T02:46:51.507Z,100419.23
2017-07-12T02:49:20.589Z,100425.26
2017-07-12T02:51:49.002Z,100419.90
2017-07-12T02:54:17.389Z,100412.02
2017-07-12T02:56:45.793Z,100417.05
2017-07-12T02:59:14.177Z,100417.09
2017-07-12T03:01:43.049Z,100415.55
2017-07-12T03:04:11.838Z,100415.12
2017-07-12T03:06:40.629Z,100414.75
2017-07-12T03:09:09.425Z,100418.01
2017-07-12T03:11:38.218Z,100423.43
2017-07-12T03:14:07.017Z,100420.16
2017-07-12T03:16:36.198Z,100415.66
2017-07-12T03:19:05.010Z,100417.80
2017-07-12T03:21:34.603Z,100419.23
2017-07-12T03:24:03.424Z,100424.62
2017-07-12T03:26:31.813Z,100426.19
2017-07-12T03:29:00.925Z,100421.73
2017-07-12T03:31:29.325Z,100423.67
2017-07-12T03:33:57.723Z,100413.68
2017-07-12T03:36:26.604Z,100416.96
2017-07-12T03:38:54.999Z,100404.86
2017-07-12T03:41:23.806Z,100403.64
2017-07-12T03:43:52.210Z,100406.75
2017-07-12T03:46:20.613Z,100402.73
2017-07-12T03:48:49.014Z,100398.06
2017-07-12T03:51:17.420Z,100413.20
2017-07-12T03:53:45.808Z,100406.95
2017-07-12T03:56:14.304Z,100407.77
2017-07-12T03:58:42.697Z,100403.19
2017-07-12T04:01:11.927Z,100404.56
2017-07-12T04:03:41.258Z,100401.03
2017-07-12T04:06:09.649Z,100396.83
2017-07-12T04:08:38.053Z,100392.90
2017-07-12T04:11:06.459Z,100395.09
2017-07-12T04:13:34.877Z,100393.91
2017-07-12T04:16:03.662Z,100399.53
2017-07-12T04:18:33.154Z,100398.38
2017-07-12T04:21:02.650Z,100397.11
2017-07-12T04:23:31.860Z,100395.78
2017-07-12T04:26:00.649Z,100395.27
2017-07-12T04:28:29.633Z,100391.84
2017-07-12T04:30:58.344Z,100389.00
2017-07-12T04:33:27.143Z,100388.69
2017-07-12T04:35:56.324Z,100375.73
2017-07-12T04:38:24.718Z,100374.97
2017-07-12T04:40:53.124Z,100380.41
2017-07-12T04:43:21.521Z,100392.12
2017-07-12T04:45:49.929Z,100386.31
2017-07-12T04:48:18.317Z,100385.36
2017-07-12T04:50:47.135Z,100381.80
2017-07-12T04:53:15.636Z,100379.42
2017-07-12T04:55:44.307Z,100389.71
2017-07-12T04:58:12.757Z,100380.78
2017-07-12T05:00:41.545Z,100390.21
2017-07-12T05:03:09.949Z,100383.86
2017-07-12T05:05:38.351Z,100385.89
2017-07-12T05:08:06.783Z,100390.36
2017-07-12T05:10:35.180Z,100395.27
2017-07-12T05:13:03.992Z,100391.08
2017-07-12T05:15:32.390Z,100387.14
2017-07-12T05:18:00.797Z,100385.73
2017-07-12T05:20:29.189Z,100391.02
2017-07-12T05:22:57.586Z,100391.50
2017-07-12T05:25:26.590Z,100388.31
2017-07-12T05:27:55.373Z,100380.56
2017-07-12T05:30:24.186Z,100378.78
2017-07-12T05:32:52.578Z,100382.44
2017-07-12T05:35:21.009Z,100379.05
2017-07-12T05:37:49.411Z,100368.00
2017-07-12T05:40:17.834Z,100363.63
2017-07-12T05:42:46.281Z,100351.45
2017-07-12T05:45:14.655Z,100357.48
2017-07-12T05:47:43.340Z,100350.61
2017-07-12T05:50:11.733Z,100350.23
2017-07-12T05:52:40.151Z,100355.45
2017-07-12T05:55:09.050Z,100357.17
2017-07-12T05:57:37.466Z,100352.27
2017-07-12T06:00:06.246Z,100341.78
2017-07-12T06:02:34.648Z,100341.44
2017-07-12T06:05:03.036Z,100334.23
2017-07-12T06:07:31.835Z,100338.83
2017-07-12T06:10:00.220Z,100336.03
2017-07-12T06:12:28.628Z,100342.63
2017-07-12T06:14:57.035Z,100335.06
2017-07-12T06:17:26.037Z,100339.39
2017-07-12T06:19:54.437Z,100336.88
2017-07-12T06:22:22.830Z,100334.87
2017-07-12T06:24:51.278Z,100338.14
2017-07-12T06:27:20.065Z,100334.91
2017-07-12T06:29:49.280Z,100328.39
2017-07-12T06:32:17.681Z,100331.45
2017-07-12T06:34:46.086Z,100334.25
2017-07-12T06:37:14.486Z,100324.78
2017-07-12T06:39:42.888Z,100313.30
2017-07-12T06:42:11.711Z,100314.52
2017-07-12T06:44:40.107Z,100312.06
2017-07-12T06:47:08.511Z,100314.72
2017-07-12T06:49:37.159Z,100314.91
2017-07-12T06:52:05.815Z,100306.03
2017-07-12T06:54:34.206Z,100311.27
2017-07-12T06:57:03.177Z,100300.20
2017-07-12T06:59:31.965Z,100295.44
2017-07-12T07:02:00.859Z,100298.02
2017-07-12T07:04:29.642Z,100290.73
2017-07-12T07:06:59.358Z,100294.50
2017-07-12T07:09:28.141Z,100278.91
2017-07-12T07:11:56.726Z,100287.21
2017-07-12T07:14:25.501Z,100286.50
2017-07-12T07:16:53.881Z,100279.97
2017-07-12T07:19:22.307Z,100277.83
2017-07-12T07:21:51.393Z,100270.75
2017-07-12T07:24:20.071Z,100261.63
2017-07-12T07:26:48.862Z,100272.89
2017-07-12T07:29:17.958Z,100264.59
2017-07-12T07:31:46.746Z,100264.71
2017-07-12T07:34:16.419Z,100251.27
2017-07-12T07:36:44.810Z,100246.30
2017-07-12T07:39:13.515Z,100244.55
2017-07-12T07:41:42.691Z,100240.71
2017-07-12T07:44:11.795Z,100234.59
2017-07-12T07:46:40.766Z,100225.27
2017-07-12T07:49:09.520Z,100204.03
2017-07-12T07:51:37.926Z,100205.70
2017-07-12T07:54:06.305Z,100212.27
2017-07-12T07:56:34.721Z,100212.98
2017-07-12T07:59:03.105Z,100213.95
2017-07-12T08:01:31.901Z,100218.62
2017-07-12T08:04:00.688Z,100213.99
2017-07-12T08:06:29.499Z,100214.08
2017-07-12T08:08:57.880Z,100218.21
2017-07-12T08:11:26.538Z,100203.53
2017-07-12T08:13:55.320Z,100203.09
2017-07-12T08:16:24.201Z,100203.22
2017-07-12T08:18:53.651Z,100192.52
2017-07-12T08:21:22.048Z,100194.29
2017-07-12T08:23:50.534Z,100205.66
2017-07-12T08:26:18.931Z,100202.18
2017-07-12T08:28:47.347Z,100195.77
2017-07-12T08:31:16.133Z,100201.41
2017-07-12T08:33:45.494Z,100198.86
2017-07-12T08:36:13.900Z,100197.48
2017-07-12T08:38:42.511Z,100202.11
2017-07-12T08:41:11.307Z,100198.35
2017-07-12T08:43:40.102Z,100197.28
2017-07-12T08:46:08.505Z,100185.55
2017-07-12T08:48:36.893Z,100184.58
2017-07-12T08:51:05.315Z,100186.95
2017-07-12T08:53:34.225Z,100177.97
2017-07-12T08:56:03.035Z,100180.88
2017-07-12T08:58:32.317Z,100176.84
2017-07-12T09:01:01.292Z,100179.20
2017-07-12T09:03:29.723Z,100178.37
2017-07-12T09:05:58.110Z,100176.08
2017-07-12T09:08:26.510Z,100172.78
2017-07-12T09:10:54.897Z,100169.24
2017-07-12T09:13:23.301Z,100176.02
2017-07-12T09:15:52.262Z,100163.16
2017-07-12T09:18:20.676Z,100165.88
2017-07-12T09:20:49.470Z,100166.88
2017-07-12T09:23:18.105Z,100161.74
2017-07-12T09:33:12.303Z,100148.28
2017-07-12T09:35:40.689Z,100146.30
2017-07-12T09:38:09.077Z,100146.70
2017-07-12T09:40:37.473Z,100137.03
2017-07-12T09:43:05.871Z,100144.54
2017-07-12T09:45:34.602Z,100152.58
2017-07-12T09:48:03.389Z,100148.84
2017-07-12T09:50:31.796Z,100150.69
2017-07-12T09:53:00.194Z,100149.23
2017-07-12T09:55:28.922Z,100149.13
2017-07-12T09:57:57.709Z,100149.76
2017-07-12T10:00:26.114Z,100145.25
2017-07-12T10:02:54.546Z,100143.79
2017-07-12T10:05:23.578Z,100144.69
2017-07-12T10:07:52.370Z,100142.84
2017-07-12T10:10:21.157Z,100145.90
2017-07-12T10:12:49.957Z,100143.13
2017-07-12T10:15:18.341Z,100149.01
2017-07-12T10:17:46.763Z,100141.61
2017-07-12T10:20:15.160Z,100144.45
2017-07-12T10:22:43.965Z,100142.86
2017-07-12T10:25:12.367Z,100142.41
2017-07-12T10:27:40.758Z,100142.71
2017-07-12T10:30:09.171Z,100143.64
2017-07-12T10:32:37.567Z,100144.05
2017-07-12T10:35:05.964Z,100144.02
2017-07-12T10:37:34.353Z,100141.54
2017-07-12T10:40:02.763Z,100138.54
2017-07-12T10:42:31.158Z,100137.80
2017-07-12T10:45:01.048Z,100139.30
2017-07-12T10:47:29.434Z,100146.31
2017-07-12T10:49:57.847Z,100141.56
2017-07-12T10:52:26.233Z,100141.40
2017-07-12T10:54:54.792Z,100138.92
2017-07-12T10:57:23.181Z,100139.45
2017-07-12T10:59:51.571Z,100140.28
2017-07-12T11:02:20.618Z,100136.86
2017-07-12T11:04:49.419Z,100126.84
2017-07-12T11:07:17.825Z,100127.25
2017-07-12T11:09:46.466Z,100115.43
2017-07-12T11:12:14.934Z,100114.50
2017-07-12T11:14:43.317Z,100114.70
2017-07-12T11:17:12.010Z,100114.09
2017-07-12T11:19:40.798Z,100110.28
2017-07-12T11:22:09.590Z,100115.03
2017-07-12T11:24:38.475Z,100110.03
2017-07-12T11:27:07.259Z,100107.47
2017-07-12T11:29:35.675Z,100114.02
2017-07-12T11:32:04.069Z,100112.48
2017-07-12T11:34:32.481Z,100116.20
2017-07-12T11:37:00.874Z,100113.46
2017-07-12T11:39:29.280Z,100108.95
2017-07-12T11:41:58.066Z,100115.39
2017-07-12T11:44:26.634Z,100111.73
2017-07-12T11:46:55.431Z,100119.03
2017-07-12T11:49:23.853Z,100122.13
2017-07-12T11:51:52.261Z,100117.95
2017-07-12T11:54:20.650Z,100118.23
2017-07-12T11:56:49.063Z,100110.72
2017-07-12T11:59:17.845Z,100102.61
2017-07-12T12:01:46.863Z,100107.28
2017-07-12T12:04:15.301Z,100102.05
2017-07-12T12:06:43.710Z,100095.10
2017-07-12T12:09:12.506Z,100098.62
2017-07-12T12:11:40.914Z,100087.02
2017-07-12T12:14:09.318Z,100092.56
2017-07-12T12:16:37.722Z,100086.73
2017-07-12T12:19:06.528Z,100088.00
2017-07-12T12:21:35.726Z,100082.85
2017-07-12T12:24:04.527Z,100087.55
2017-07-12T12:26:32.926Z,100087.84
2017-07-12T12:29:01.353Z,100091.00
2017-07-12T12:31:31.130Z,100093.17
2017-07-12T12:33:59.774Z,100091.42
2017-07-12T12:36:28.574Z,100086.73
2017-07-12T12:38:57.263Z,100093.49
2017-07-12T12:41:25.652Z,100085.97
2017-07-12T12:43:54.404Z,100087.03
2017-07-12T12:46:23.082Z,100084.33
2017-07-12T12:48:52.165Z,100098.89
2017-07-12T12:51:20.889Z,100097.76
2017-07-12T12:53:49.687Z,100090.43
2017-07-12T12:56:18.106Z,100091.06
2017-07-12T12:58:46.851Z,100098.41
2017-07-12T13:01:15.894Z,100096.45
2017-07-12T13:03:44.285Z,100090.59
2017-07-12T13:06:12.674Z,100091.56
2017-07-12T13:08:41.628Z,100086.17
2017-07-12T13:11:10.669Z,100086.27
2017-07-12T13:13:39.261Z,100084.33
2017-07-12T13:16:08.058Z,100078.20
2017-07-12T13:18:36.845Z,100076.02
2017-07-12T13:21:06.417Z,100070.83
2017-07-12T13:23:34.775Z,100063.93
2017-07-12T13:26:03.190Z,100069.25
2017-07-12T13:28:31.577Z,100065.59
2017-07-12T13:31:00.294Z,100056.38
2017-07-12T13:33:28.978Z,100048.16
2017-07-12T13:35:57.778Z,100043.71
2017-07-12T13:38:26.171Z,100045.39
2017-07-12T13:40:54.831Z,100042.39
2017-07-12T13:43:23.647Z,100036.52
2017-07-12T13:45:52.150Z,100033.67
2017-07-12T13:48:21.130Z,100032.64
2017-07-12T13:50:49.787Z,100030.47
2017-07-12T13:53:19.280Z,100025.39
2017-07-12T13:55:48.066Z,100019.52
2017-07-12T13:58:17.679Z,100012.93
2017-07-12T14:00:46.465Z,100011.81
2017-07-12T14:03:15.263Z,100001.69
2017-07-12T14:05:44.075Z,100000.77
2017-07-12T14:08:12.478Z,99995.61
2017-07-12T14:10:40.895Z,99991.03
2017-07-12T14:13:09.314Z,99987.66
2017-07-12T14:15:37.719Z,99980.25
2017-07-12T14:18:06.122Z,99971.45
2017-07-12T14:20:34.846Z,99974.15
2017-07-12T14:23:03.233Z,99968.50
2017-07-12T14:25:31.697Z,99962.83
2017-07-12T14:28:00.490Z,99961.14
2017-07-12T14:30:28.934Z,99956.11
2017-07-12T14:32:57.318Z,99957.53
2017-07-12T14:35:25.941Z,99948.27
2017-07-12T14:37:55.041Z,99958.22
2017-07-12T14:40:24.140Z,99956.56
2017-07-12T14:42:52.551Z,99956.35
2017-07-12T14:45:20.951Z,99954.50
2017-07-12T14:47:49.367Z,99943.06
2017-07-12T14:50:18.160Z,99945.48
2017-07-12T14:52:47.267Z,99943.58
2017-07-12T14:55:16.062Z,99939.63
2017-07-12T14:57:44.738Z,99947.66
2017-07-12T15:00:14.064Z,99936.77
2017-07-12T15:02:42.610Z,99935.80
2017-07-12T15:05:11.407Z,99933.11
2017-07-12T15:07:40.388Z,99925.28
2017-07-12T15:10:10.458Z,99927.48
2017-07-12T15:12:38.845Z,99921.73
2017-07-12T15:15:07.259Z,99914.08
2017-07-12T15:17:35.975Z,99915.70
2017-07-12T15:20:04.932Z,99906.95
2017-07-12T15:22:33.316Z,99908.48
2017-07-12T15:25:03.166Z,99906.70
2017-07-12T15:27:32.007Z,99904.55
2017-07-12T15:30:00.717Z,99891.53
2017-07-12T15:32:29.108Z,99890.50
2017-07-12T15:34:57.911Z,99891.42
2017-07-12T15:37:26.723Z,99880.19
2017-07-12T15:39:56.045Z,99869.48
2017-07-12T15:42:24.455Z,99870.05
2017-07-12T15:44:52.888Z,99868.10
2017-07-12T15:47:21.293Z,99855.53
2017-07-12T15:49:49.692Z,99871.27
2017-07-12T15:52:18.418Z,116335.97
2017-07-12T15:54:46.830Z,116335.97
2017-07-12T15:57:15.536Z,116335.97
2017-07-12T15:59:44.722Z,116335.97
2017-07-12T16:02:13.140Z,116335.97
2017-07-12T16:04:41.571Z,116335.97
2017-07-12T16:07:09.986Z,116335.97
2017-07-12T16:09:38.411Z,116335.97
2017-07-12T16:12:06.828Z,116335.97
2017-07-12T16:14:35.269Z,116335.97
2017-07-12T16:17:03.911Z,116335.97
2017-07-12T16:19:32.352Z,116335.97
2017-07-12T16:22:00.767Z,116335.97
2017-07-12T16:24:29.391Z,116335.97
2017-07-12T16:26:57.799Z,116335.97
2017-07-12T16:29:26.469Z,116335.97
2017-07-12T16:31:54.908Z,116335.97
2017-07-12T16:34:23.317Z,116335.97
2017-07-12T16:36:52.152Z,116335.97
2017-07-12T16:39:20.569Z,116335.97
2017-07-12T16:41:50.822Z,116335.97
2017-07-12T16:44:19.633Z,116335.97
2017-07-12T16:46:48.386Z,116335.97
2017-07-12T16:49:17.273Z,116335.97
2017-07-12T16:51:46.083Z,116335.97
2017-07-12T16:54:14.519Z,116335.97
2017-07-12T16:56:42.935Z,116335.97
2017-07-12T16:59:12.478Z,116335.97
2017-07-12T17:01:40.877Z,116335.97
2017-07-12T17:04:09.299Z,116335.97
2017-07-12T17:06:38.114Z,116335.97
2017-07-12T17:09:06.615Z,116335.97
2017-07-12T17:11:35.866Z,116335.97
2017-07-12T17:14:04.890Z,99848.06
2017-07-12T17:16:33.286Z,99849.48
2017-07-12T17:19:01.670Z,99855.28
2017-07-12T17:21:30.083Z,99846.42
2017-07-12T17:23:58.479Z,99850.31
2017-07-12T17:26:27.287Z,99850.18
2017-07-12T17:28:56.520Z,99847.34
2017-07-12T17:31:25.174Z,99852.87
2017-07-12T17:33:53.482Z,99852.44
2017-07-12T17:36:21.872Z,99854.12
2017-07-12T17:38:50.283Z,99859.36
2017-07-12T17:41:18.671Z,99855.75
2017-07-12T17:43:47.700Z,99855.66
2017-07-12T17:46:16.095Z,99852.12
2017-07-12T17:48:44.855Z,99865.76
2017-07-12T17:51:13.246Z,99872.92
2017-07-12T17:53:41.650Z,99878.97
2017-07-12T17:56:10.049Z,99868.73
2017-07-12T17:58:38.443Z,99877.02
2017-07-12T18:01:06.856Z,99869.88
2017-07-12T18:03:35.250Z,99874.42
2017-07-12T18:06:03.654Z,99879.02
2017-07-12T18:08:33.048Z,99878.86
2017-07-12T18:11:01.445Z,99877.78
2017-07-12T18:13:29.830Z,99876.73
2017-07-12T18:15:58.449Z,99875.12
2017-07-12T18:18:27.243Z,99874.62
2017-07-12T18:20:56.062Z,99878.53
2017-07-12T18:23:24.584Z,99891.38
2017-07-12T18:25:53.312Z,99890.06
2017-07-12T18:28:22.119Z,99884.50
2017-07-12T18:30:50.566Z,99897.83
2017-07-12T18:33:19.747Z,99901.66
2017-07-12T18:35:48.139Z,99904.91
2017-07-12T18:38:16.542Z,99911.88
2017-07-12T18:40:45.336Z,99912.34
2017-07-12T18:46:11.285Z,99919.61
2017-07-12T18:48:39.664Z,99921.80
2017-07-12T18:51:08.066Z,99932.42
2017-07-12T18:53:36.441Z,99935.23
2017-07-12T18:56:04.972Z,99937.55
2017-07-12T18:58:33.352Z,99941.27
2017-07-12T19:01:01.739Z,99951.30
2017-07-12T19:03:30.132Z,99949.72
2017-07-12T19:05:58.907Z,99957.97
2017-07-12T19:08:27.701Z,99967.77
2017-07-12T19:10:56.486Z,99961.78
2017-07-12T19:13:25.277Z,99982.97
2017-07-12T19:15:53.652Z,99987.11
2017-07-12T19:18:22.059Z,99991.97
2017-07-12T19:20:50.512Z,99993.83
2017-07-12T19:23:19.078Z,100006.56
2017-07-12T19:25:47.462Z,100008.25
2017-07-12T19:28:15.861Z,100022.31
2017-07-12T19:30:44.264Z,100030.59
2017-07-12T19:33:12.650Z,100038.33
2017-07-12T19:35:41.505Z,100050.56
2017-07-12T19:38:09.943Z,100059.92
2017-07-12T19:40:38.488Z,100076.30
2017-07-12T19:43:07.271Z,100081.52
2017-07-12T19:45:36.058Z,100093.66
2017-07-12T19:48:04.867Z,100108.14
2017-07-12T19:50:33.253Z,100112.98
2017-07-12T19:53:01.740Z,100122.66
2017-07-12T19:55:30.193Z,100132.35
2017-07-12T19:57:58.993Z,100145.47
2017-07-12T20:00:27.783Z,100144.86
2017-07-12T20:02:56.766Z,100151.84
2017-07-12T20:05:25.159Z,100152.87
2017-07-12T20:07:53.945Z,100157.25
2017-07-12T20:10:22.755Z,100162.94
2017-07-12T20:12:51.421Z,100166.86
2017-07-12T20:15:20.213Z,100169.00
2017-07-12T20:17:48.998Z,100170.77
2017-07-12T20:20:17.820Z,100181.86
2017-07-12T20:22:46.204Z,100185.63
2017-07-12T20:25:14.841Z,100194.84
2017-07-12T20:27:43.621Z,100188.31
2017-07-12T20:30:12.013Z,100203.17
2017-07-12T20:32:40.808Z,100210.98
2017-07-12T20:35:09.589Z,100225.25
2017-07-12T20:37:38.381Z,100228.59
2017-07-12T20:40:07.156Z,100234.17
2017-07-12T20:42:35.552Z,100236.29
2017-07-12T20:45:04.327Z,100244.23
2017-07-12T20:47:32.730Z,100247.88
2017-07-12T20:50:01.517Z,100254.75
2017-07-12T20:52:30.317Z,100262.73
2017-07-12T20:54:58.696Z,100261.16
2017-07-12T20:57:27.368Z,100270.96
2017-07-12T20:59:56.519Z,100282.00
2017-07-12T21:02:24.887Z,100289.05
2017-07-12T21:04:53.293Z,100291.19
2017-07-12T21:09:59.507Z,100301.28
2017-07-12T21:12:28.288Z,100306.91
2017-07-12T21:14:56.664Z,100302.02
2017-07-12T21:17:25.128Z,100326.78
2017-07-12T21:19:53.517Z,100329.13
2017-07-12T21:22:21.916Z,100333.15
2017-07-12T21:24:50.695Z,100334.78
2017-07-12T21:27:19.286Z,100347.48
2017-07-12T21:29:48.078Z,100365.53
2017-07-12T21:32:16.482Z,100373.12
2017-07-12T21:34:44.890Z,100394.10
2017-07-12T21:37:13.612Z,100404.47
2017-07-12T21:39:42.016Z,100421.95
2017-07-12T21:42:10.801Z,100430.09
2017-07-12T21:44:39.902Z,100440.11
2017-07-12T21:47:08.675Z,100450.74
2017-07-12T21:49:37.223Z,100462.93
2017-07-12T21:52:05.609Z,100469.38
2017-07-12T21:54:57.667Z,100481.94
2017-07-12T21:57:49.496Z,100483.37
2017-07-12T22:00:41.539Z,100497.41
2017-07-12T22:03:33.834Z,100496.08
2017-07-12T22:06:25.719Z,100507.82
2017-07-12T22:09:18.057Z,100523.81
2017-07-12T22:12:10.388Z,100533.22
2017-07-12T22:15:02.229Z,100546.69
2017-07-12T22:17:54.354Z,100549.28
2017-07-12T22:20:46.168Z,100549.00
2017-07-12T22:23:38.086Z,100555.44
2017-07-12T22:26:30.072Z,100558.92
2017-07-12T22:29:22.409Z,100569.44
2017-07-12T22:32:14.861Z,100575.78
2017-07-12T22:35:07.068Z,100577.52
2017-07-12T22:37:41.055Z,100579.86
2017-07-12T22:40:15.093Z,100584.49
2017-07-12T22:42:48.792Z,100587.41
2017-07-12T22:45:17.347Z,100587.17
2017-07-12T22:47:45.986Z,100597.77
2017-07-12T22:50:14.794Z,100589.30
2017-07-12T22:52:43.217Z,100607.84
2017-07-12T22:55:11.601Z,100616.68
2017-07-12T22:57:40.218Z,100616.78
2017-07-12T23:00:09.000Z,100621.61
2017-07-12T23:02:37.778Z,100625.72
2017-07-12T23:05:06.176Z,100622.86
2017-07-12T23:07:34.951Z,100633.60
2017-07-12T23:10:03.361Z,100639.39
2017-07-12T23:12:31.769Z,100646.56
2017-07-12T23:15:00.173Z,100640.73
2017-07-12T23:17:28.560Z,100655.98
2017-07-12T23:19:57.276Z,100656.80
2017-07-12T23:22:26.052Z,100667.03
2017-07-12T23:24:55.159Z,100668.25
2017-07-12T23:27:23.946Z,100676.56
2017-07-12T23:29:53.043Z,100675.76
2017-07-12T23:32:21.843Z,100681.59
2017-07-12T23:34:50.233Z,100685.95
2017-07-12T23:37:18.646Z,100685.70
2017-07-12T23:39:47.041Z,100697.92
2017-07-12T23:42:15.439Z,100702.63
2017-07-12T23:44:43.841Z,100701.70
2017-07-12T23:47:12.646Z,100697.69
2017-07-12T23:49:41.318Z,100720.48
2017-07-12T23:52:10.119Z,100715.61
